Time;durP1;ratioP1;P1;durP2;ratioP2;P2;SDS_P1;SDS_P2;PMS_P1;PMS_P2;Temp;Humidity;BMP_temperature;BMP_pressure;BME280_temperature;BME280_humidity;BME280_pressure;Samples;Min_cycle;Max_cycle;Signal;HPM_P1;HPM_P2
2023/03/19 00:01:11;;;;;;;7.85;3.58;;;9.60;99.90;;;;;;6221342;23;20115;-91
2023/03/19 00:03:58;;;;;;;6.18;3.00;;;9.60;99.90;;;;;;6230345;23;20008;-89
2023/03/19 00:06:48;;;;;;;9.38;3.10;;;9.50;99.90;;;;;;6227226;23;20030;-89
2023/03/19 00:09:35;;;;;;;8.43;3.00;;;9.50;96.80;;;;;;6218881;23;20024;-91
2023/03/19 00:12:22;;;;;;;7.25;3.40;;;9.60;98.40;;;;;;6218590;23;20190;-89
2023/03/19 00:15:12;;;;;;;7.07;3.00;;;9.50;99.10;;;;;;6219266;23;20154;-89
2023/03/19 00:18:01;;;;;;;4.93;2.95;;;9.50;99.80;;;;;;6217888;23;20029;-91
2023/03/19 00:20:48;;;;;;;9.15;3.47;;;9.50;99.90;;;;;;6217510;23;20102;-89
2023/03/19 00:23:38;;;;;;;7.80;2.88;;;9.50;99.90;;;;;;6216376;23;20024;-90
2023/03/19 00:26:27;;;;;;;8.43;3.50;;;9.50;99.90;;;;;;6216689;23;20032;-88
2023/03/19 00:29:14;;;;;;;9.05;3.60;;;9.50;99.90;;;;;;6215867;23;20135;-91
2023/03/19 00:32:02;;;;;;;8.85;4.05;;;9.50;99.90;;;;;;6215783;23;20039;-90
2023/03/19 00:34:49;;;;;;;10.85;4.53;;;9.40;99.90;;;;;;6217654;23;20221;-90
2023/03/19 00:37:37;;;;;;;8.70;4.32;;;9.30;99.90;;;;;;6216356;23;20374;-90
2023/03/19 00:40:32;;;;;;;7.93;4.28;;;9.20;99.90;;;;;;6217536;23;20294;-90
2023/03/19 00:43:20;;;;;;;9.55;4.20;;;9.20;99.90;;;;;;6216839;23;20032;-91
2023/03/19 00:46:07;;;;;;;10.95;3.92;;;9.20;99.90;;;;;;6215349;23;20028;-90
2023/03/19 00:48:55;;;;;;;7.78;3.83;;;9.20;99.90;;;;;;6217458;23;20039;-91
2023/03/19 00:51:42;;;;;;;8.18;3.50;;;9.20;99.90;;;;;;6216252;23;20024;-90
2023/03/19 00:54:31;;;;;;;7.57;4.15;;;9.40;99.90;;;;;;6215394;23;20106;-91
2023/03/19 00:57:18;;;;;;;7.28;3.85;;;9.40;99.90;;;;;;6215709;23;20108;-90
2023/03/19 01:00:07;;;;;;;10.60;4.53;;;9.30;99.90;;;;;;6217425;23;20024;-90
2023/03/19 01:02:54;;;;;;;10.20;4.65;;;9.20;99.90;;;;;;6216177;23;20086;-89
2023/03/19 01:05:42;;;;;;;11.00;4.32;;;9.20;99.90;;;;;;6215998;23;20025;-89
2023/03/19 01:08:30;;;;;;;9.85;4.57;;;9.20;99.90;;;;;;6216024;23;20047;-92
2023/03/19 01:11:17;;;;;;;7.30;3.60;;;9.30;99.90;;;;;;6217358;23;20035;-89
2023/03/19 01:14:05;;;;;;;9.70;3.38;;;9.50;99.90;;;;;;6220364;23;20100;-90
2023/03/19 01:16:53;;;;;;;10.70;3.65;;;9.70;99.90;;;;;;6226797;23;20075;-91
2023/03/19 01:19:40;;;;;;;8.40;3.35;;;9.80;83.50;;;;;;6231917;23;20036;-90
2023/03/19 01:22:28;;;;;;;9.82;3.13;;;9.70;66.90;;;;;;6219548;23;20112;-90
2023/03/19 01:25:15;;;;;;;5.97;3.60;;;9.70;67.50;;;;;;6216455;23;20056;-86
2023/03/19 01:28:03;;;;;;;8.77;3.67;;;9.70;57.30;;;;;;6218517;23;20419;-90
2023/03/19 01:30:50;;;;;;;6.07;3.45;;;9.80;44.00;;;;;;6216682;23;20024;-90
2023/03/19 01:33:38;;;;;;;6.63;3.88;;;9.90;37.80;;;;;;6215679;23;20025;-87
2023/03/19 01:36:25;;;;;;;12.00;3.50;;;9.90;31.50;;;;;;6216414;23;20028;-89
2023/03/19 01:39:12;;;;;;;8.93;3.78;;;9.80;32.80;;;;;;6217375;23;20033;-90
2023/03/19 01:42:01;;;;;;;6.07;4.13;;;9.80;43.20;;;;;;6217237;23;20029;-89
2023/03/19 01:44:49;;;;;;;7.15;3.20;;;9.60;99.30;;;;;;6214547;23;20110;-90
2023/03/19 01:47:42;;;;;;;7.75;3.60;;;9.20;99.90;;;;;;6215665;23;20454;-89
2023/03/19 01:50:44;;;;;;;7.38;3.85;;;9.10;99.90;;;;;;6215170;23;20031;-90
2023/03/19 01:53:33;;;;;;;9.88;3.90;;;8.90;99.90;;;;;;6216385;23;20032;-90
2023/03/19 01:56:27;;;;;;;8.40;4.57;;;8.70;99.90;;;;;;6216627;23;20040;-90
2023/03/19 01:59:20;;;;;;;5.75;3.80;;;8.60;1.00;;;;;;6216838;23;20352;-89
2023/03/19 02:02:18;;;;;;;8.80;4.50;;;8.40;99.90;;;;;;6218126;23;20032;-89
2023/03/19 02:05:24;;;;;;;8.95;5.18;;;8.30;99.90;;;;;;6215215;23;20029;-90
2023/03/19 02:08:14;;;;;;;11.85;6.50;;;8.30;62.40;;;;;;6217674;23;20029;-91
2023/03/19 02:11:04;;;;;;;12.98;6.93;;;8.30;1.00;;;;;;6216847;23;20031;-89
2023/03/19 02:13:52;;;;;;;16.67;7.55;;;8.40;1.00;;;;;;6216888;23;20443;-87
2023/03/19 02:16:39;;;;;;;11.40;6.18;;;8.40;1.00;;;;;;6216259;23;20043;-88
2023/03/19 02:19:37;;;;;;;13.75;6.75;;;8.30;5.30;;;;;;6215754;23;20024;-87
2023/03/19 02:22:27;;;;;;;10.82;6.38;;;8.20;99.90;;;;;;6217708;23;20031;-90
2023/03/19 02:25:27;;;;;;;11.80;6.20;;;8.10;99.90;;;;;;6214935;23;20103;-90
2023/03/19 02:28:17;;;;;;;11.32;6.35;;;8.00;26.10;;;;;;6216698;23;20086;-90
2023/03/19 02:31:06;;;;;;;13.55;6.90;;;8.00;99.90;;;;;;6216489;23;20051;-91
2023/03/19 02:34:02;;;;;;;10.27;7.50;;;8.00;99.90;;;;;;6218638;23;20024;-90
2023/03/19 02:36:54;;;;;;;13.52;7.53;;;8.10;1.00;;;;;;6222554;23;20017;-90
2023/03/19 02:40:06;;;;;;;15.32;8.25;;;8.00;68.20;;;;;;6218155;23;20024;-89
2023/03/19 02:42:54;;;;;;;18.77;9.07;;;8.00;99.90;;;;;;6216853;23;20360;-90
2023/03/19 02:45:41;;;;;;;15.07;8.52;;;8.00;99.90;;;;;;6218797;23;20037;-90
2023/03/19 02:48:31;;;;;;;13.90;8.90;;;7.90;99.90;;;;;;6217662;23;20024;-88
2023/03/19 02:51:24;;;;;;;15.85;9.40;;;7.90;99.90;;;;;;6219335;23;20056;-89
2023/03/19 02:54:13;;;;;;;18.48;10.25;;;7.90;99.90;;;;;;6219991;23;20410;-89
2023/03/19 02:57:00;;;;;;;15.27;10.77;;;8.00;99.90;;;;;;6216915;23;20036;-89
2023/03/19 02:59:47;;;;;;;20.60;10.63;;;8.00;99.90;;;;;;6217875;23;20031;-87
2023/03/19 03:02:35;;;;;;;20.27;11.30;;;8.00;99.90;;;;;;6216371;23;20016;-88
2023/03/19 03:05:22;;;;;;;15.15;10.30;;;7.90;99.90;;;;;;6197156;23;20032;-87
2023/03/19 03:08:10;;;;;;;18.02;11.80;;;7.90;99.90;;;;;;6217372;23;20063;-88
2023/03/19 03:10:57;;;;;;;18.60;11.15;;;7.90;99.90;;;;;;6195690;23;20028;-89
2023/03/19 03:13:44;;;;;;;21.92;11.63;;;7.90;99.90;;;;;;6218010;23;20033;-88
2023/03/19 03:16:32;;;;;;;15.68;10.50;;;7.90;99.90;;;;;;6215917;23;20031;-89
2023/03/19 03:19:19;;;;;;;22.20;11.50;;;7.90;99.90;;;;;;6217440;23;20027;-89
2023/03/19 03:22:06;;;;;;;14.00;9.65;;;7.90;99.90;;;;;;6218198;23;20049;-89
2023/03/19 03:24:56;;;;;;;19.70;9.52;;;7.90;99.90;;;;;;6216024;23;20028;-88
2023/03/19 03:27:45;;;;;;;15.73;10.18;;;7.80;99.90;;;;;;6217712;23;20021;-90
2023/03/19 03:30:32;;;;;;;17.65;9.70;;;7.80;99.90;;;;;;6215965;23;20031;-89
2023/03/19 03:33:25;;;;;;;14.57;9.10;;;7.80;99.90;;;;;;6217951;23;20104;-89
2023/03/19 03:36:14;;;;;;;11.50;8.25;;;7.80;99.90;;;;;;6215723;23;20024;-87
2023/03/19 03:39:01;;;;;;;11.75;7.65;;;7.80;99.90;;;;;;6218261;23;20024;-88
2023/03/19 03:41:48;;;;;;;15.93;7.35;;;7.80;99.90;;;;;;6217706;23;20024;-86
2023/03/19 03:44:36;;;;;;;12.15;7.40;;;7.80;99.90;;;;;;6217461;23;20126;-87
2023/03/19 03:47:24;;;;;;;13.15;7.10;;;7.80;99.90;;;;;;6214215;23;20143;-89
2023/03/19 03:50:12;;;;;;;10.23;6.63;;;7.80;99.90;;;;;;6216582;23;20110;-87
2023/03/19 03:53:02;;;;;;;11.13;6.38;;;7.70;99.90;;;;;;6218460;23;20028;-89
2023/03/19 03:55:50;;;;;;;8.73;6.38;;;7.70;99.90;;;;;;6216215;23;20432;-88
2023/03/19 03:58:37;;;;;;;12.43;6.65;;;7.70;99.90;;;;;;6217744;23;20086;-89
2023/03/19 04:01:28;;;;;;;13.45;7.07;;;7.70;99.90;;;;;;6216428;23;20025;-88
2023/03/19 04:04:15;;;;;;;10.98;6.68;;;7.70;99.90;;;;;;6227125;23;20024;-90
2023/03/19 04:07:07;;;;;;;12.60;6.93;;;7.70;99.90;;;;;;6232730;23;20052;-87
2023/03/19 04:09:57;;;;;;;12.50;6.47;;;7.70;99.90;;;;;;6229614;23;20032;-89
2023/03/19 04:12:44;;;;;;;12.35;7.00;;;7.80;99.90;;;;;;6231483;23;20029;-89
2023/03/19 04:15:31;;;;;;;10.25;6.53;;;7.80;99.90;;;;;;6239667;23;20017;-88
2023/03/19 04:18:19;;;;;;;11.88;7.97;;;7.80;99.90;;;;;;6237930;23;20021;-89
2023/03/19 04:21:07;;;;;;;14.25;8.68;;;7.80;99.90;;;;;;6230081;23;20024;-89
2023/03/19 04:23:57;;;;;;;14.07;8.32;;;7.80;99.90;;;;;;6221728;23;20087;-88
2023/03/19 04:26:47;;;;;;;11.77;8.18;;;7.80;99.90;;;;;;6223914;23;20017;-88
2023/03/19 04:29:34;;;;;;;15.82;9.18;;;7.80;99.90;;;;;;6232378;23;20088;-88
2023/03/19 04:32:22;;;;;;;13.45;9.23;;;7.80;99.90;;;;;;6234379;23;20341;-89
2023/03/19 04:35:09;;;;;;;12.98;8.63;;;7.90;99.90;;;;;;6227559;23;20048;-88
2023/03/19 04:37:56;;;;;;;12.73;8.40;;;7.90;99.90;;;;;;6228063;23;20385;-89
2023/03/19 04:40:48;;;;;;;12.48;8.15;;;7.90;99.90;;;;;;6228628;23;20436;-88
2023/03/19 04:43:36;;;;;;;16.23;8.40;;;7.80;99.90;;;;;;6217125;23;20312;-88
2023/03/19 04:46:23;;;;;;;12.60;7.38;;;7.80;99.90;;;;;;6213848;23;20336;-89
2023/03/19 04:49:11;;;;;;;14.60;7.32;;;7.80;99.90;;;;;;6216779;23;20035;-89
2023/03/19 04:51:58;;;;;;;10.30;6.25;;;7.80;99.90;;;;;;6216952;23;20039;-90
2023/03/19 04:54:45;;;;;;;9.30;5.60;;;7.90;99.90;;;;;;6216170;23;20082;-90
2023/03/19 04:57:34;;;;;;;11.35;5.75;;;7.90;99.90;;;;;;6215345;23;20400;-87
2023/03/19 05:00:22;;;;;;;12.07;6.32;;;8.00;17.40;;;;;;6216607;23;20357;-88
2023/03/19 05:03:47;;;;;;;13.50;5.97;;;7.90;99.90;;;;;;6217384;23;20025;-88
2023/03/19 05:06:37;;;;;;;12.75;5.68;;;7.90;1.00;;;;;;6220369;23;20028;-87
2023/03/19 05:09:24;;;;;;;10.00;5.50;;;7.90;1.00;;;;;;6221030;23;20327;-88
2023/03/19 05:12:12;;;;;;;9.13;4.90;;;7.90;99.90;;;;;;6220671;23;20039;-87
2023/03/19 05:14:59;;;;;;;10.65;4.65;;;7.90;99.90;;;;;;6217294;23;20021;-87
2023/03/19 05:17:47;;;;;;;11.30;5.15;;;7.90;1.00;;;;;;6216703;23;20031;-90
2023/03/19 05:20:36;;;;;;;13.68;6.18;;;8.00;99.90;;;;;;6223223;23;20021;-89
2023/03/19 05:23:23;;;;;;;9.90;5.13;;;7.90;1.00;;;;;;6223077;23;20032;-88
2023/03/19 05:26:11;;;;;;;7.28;5.03;;;7.90;1.00;;;;;;6222365;23;20028;-88
2023/03/19 05:28:58;;;;;;;10.60;5.82;;;7.80;1.00;;;;;;6220903;23;20029;-90
2023/03/19 05:31:46;;;;;;;9.88;5.25;;;7.90;99.90;;;;;;6222852;23;20020;-88
2023/03/19 05:34:36;;;;;;;10.80;6.93;;;7.80;38.90;;;;;;6222668;23;20040;-88
2023/03/19 05:37:23;;;;;;;9.80;6.22;;;7.80;99.90;;;;;;6203843;23;20071;-89
2023/03/19 05:40:11;;;;;;;10.48;5.70;;;7.70;1.00;;;;;;6224660;23;20029;-88
2023/03/19 05:42:58;;;;;;;8.45;5.97;;;7.70;1.00;;;;;;6228873;23;20021;-88
2023/03/19 05:45:53;;;;;;;12.73;6.38;;;7.70;99.90;;;;;;6223940;23;20356;-90
2023/03/19 05:48:41;;;;;;;10.95;6.28;;;7.70;97.10;;;;;;6226386;23;20025;-87
2023/03/19 05:51:28;;;;;;;13.55;6.47;;;7.70;99.90;;;;;;6229977;23;20024;-88
2023/03/19 05:54:17;;;;;;;8.98;6.40;;;7.70;99.90;;;;;;6226497;23;20025;-88
2023/03/19 05:57:05;;;;;;;9.77;7.25;;;7.70;1.00;;;;;;6219961;23;20040;-89
2023/03/19 05:59:54;;;;;;;9.43;6.30;;;7.60;1.00;;;;;;6219810;23;20025;-90
2023/03/19 06:02:44;;;;;;;14.00;6.65;;;7.60;57.10;;;;;;6217496;23;20025;-90
2023/03/19 06:05:36;;;;;;;9.85;7.22;;;7.60;99.90;;;;;;6218715;23;20035;-90
2023/03/19 06:08:25;;;;;;;10.02;6.65;;;7.70;99.90;;;;;;6215456;23;20020;-86
2023/03/19 06:11:13;;;;;;;11.43;6.45;;;7.70;99.90;;;;;;6214574;23;20021;-86
2023/03/19 06:14:02;;;;;;;13.55;5.65;;;7.70;99.90;;;;;;6214284;23;20051;-85
2023/03/19 06:16:50;;;;;;;8.45;5.22;;;7.70;1.00;;;;;;6215724;23;20120;-86
2023/03/19 06:19:39;;;;;;;9.45;4.90;;;7.80;99.90;;;;;;6215842;23;20056;-85
2023/03/19 06:22:27;;;;;;;11.57;7.05;;;7.90;99.90;;;;;;6216522;23;20024;-85
2023/03/19 06:25:14;;;;;;;9.77;6.78;;;7.90;99.90;;;;;;6215249;23;20698;-83
2023/03/19 06:28:02;;;;;;;12.30;6.97;;;7.80;1.00;;;;;;6213350;23;20032;-84
2023/03/19 06:30:49;;;;;;;9.77;6.72;;;7.90;90.80;;;;;;6216115;23;20044;-87
2023/03/19 06:33:37;;;;;;;11.50;7.10;;;7.90;99.90;;;;;;6213206;23;20029;-90
2023/03/19 06:36:25;;;;;;;12.27;5.47;;;7.90;99.90;;;;;;6215256;23;20044;-88
2023/03/19 06:39:12;;;;;;;12.27;5.40;;;7.90;34.80;;;;;;6215449;23;20315;-88
2023/03/19 06:42:02;;;;;;;7.72;5.35;;;7.90;99.90;;;;;;6214643;23;20028;-88
2023/03/19 06:44:49;;;;;;;6.85;5.18;;;7.90;93.00;;;;;;6213582;23;20108;-88
2023/03/19 06:47:40;;;;;;;7.53;4.72;;;8.00;1.00;;;;;;6216034;23;20032;-88
2023/03/19 06:50:29;;;;;;;7.25;4.38;;;8.00;99.90;;;;;;6215201;23;20399;-90
2023/03/19 06:53:16;;;;;;;6.88;3.58;;;8.00;99.90;;;;;;6215233;23;20428;-88
2023/03/19 06:56:04;;;;;;;5.90;3.88;;;8.10;99.90;;;;;;6215490;23;20036;-91
2023/03/19 06:58:51;;;;;;;10.48;4.00;;;8.10;1.00;;;;;;6214909;23;20033;-92
2023/03/19 07:01:42;;;;;;;7.28;3.80;;;8.10;99.90;;;;;;6215597;23;20028;-89
2023/03/19 07:04:29;;;;;;;6.63;3.85;;;8.10;1.00;;;;;;6215691;23;20760;-91
2023/03/19 07:07:17;;;;;;;4.82;3.30;;;8.20;99.90;;;;;;6216897;23;20024;-90
2023/03/19 07:10:05;;;;;;;5.63;3.50;;;8.30;99.90;;;;;;6213789;23;20032;-89
2023/03/19 07:12:52;;;;;;;5.60;3.30;;;8.30;1.00;;;;;;6216942;23;20035;-91
2023/03/19 07:15:40;;;;;;;7.32;3.92;;;8.30;1.00;;;;;;6217591;23;20112;-89
2023/03/19 07:18:27;;;;;;;7.57;4.15;;;8.40;99.90;;;;;;6228764;23;20021;-88
2023/03/19 07:21:14;;;;;;;4.57;3.70;;;8.50;99.90;;;;;;6229182;23;20407;-90
2023/03/19 07:24:01;;;;;;;6.57;3.30;;;8.50;99.90;;;;;;6221182;23;20024;-90
2023/03/19 07:26:49;;;;;;;11.27;3.05;;;8.70;3.40;;;;;;6215551;23;20087;-89
2023/03/19 07:29:37;;;;;;;5.47;3.00;;;8.80;1.00;;;;;;6216955;23;20088;-91
2023/03/19 07:32:24;;;;;;;5.70;2.83;;;8.90;1.00;;;;;;6216172;23;20024;-91
2023/03/19 07:35:13;;;;;;;6.05;3.17;;;9.00;99.90;;;;;;6218569;23;20025;-88
2023/03/19 07:38:01;;;;;;;4.55;2.30;;;9.10;99.90;;;;;;6218077;23;20424;-89
2023/03/19 07:40:51;;;;;;;5.18;2.83;;;9.30;99.90;;;;;;6219457;23;20021;-90
2023/03/19 07:43:48;;;;;;;8.35;2.85;;;9.50;94.40;;;;;;6216029;23;20110;-92
2023/03/19 07:46:36;;;;;;;4.22;2.33;;;9.70;32.30;;;;;;6218927;23;20056;-90
2023/03/19 07:49:26;;;;;;;12.02;2.78;;;9.90;1.00;;;;;;6216538;23;20114;-91
2023/03/19 07:52:13;;;;;;;5.68;2.63;;;10.00;1.00;;;;;;6217099;23;20377;-92
2023/03/19 07:55:00;;;;;;;5.35;2.60;;;10.10;99.90;;;;;;6217427;23;20037;-91
2023/03/19 07:57:48;;;;;;;7.68;2.30;;;10.10;99.90;;;;;;6217651;23;20047;-90
2023/03/19 08:00:37;;;;;;;4.22;2.55;;;10.20;99.90;;;;;;6217122;23;20024;-91
2023/03/19 08:03:24;;;;;;;4.72;3.08;;;10.40;99.90;;;;;;6217472;23;20020;-90
2023/03/19 08:06:12;;;;;;;4.57;2.30;;;10.50;99.90;;;;;;6216744;23;20102;-90
2023/03/19 08:09:01;;;;;;;4.07;2.10;;;10.60;99.90;;;;;;6218397;23;20028;-91
2023/03/19 08:11:48;;;;;;;3.55;2.47;;;10.60;99.90;;;;;;6221472;23;20028;-92
2023/03/19 08:14:36;;;;;;;5.95;3.03;;;10.60;99.90;;;;;;6235699;23;20126;-89
2023/03/19 08:17:23;;;;;;;6.00;3.08;;;10.60;99.90;;;;;;6234667;23;20020;-89
2023/03/19 08:20:12;;;;;;;4.38;2.60;;;10.60;99.90;;;;;;6224135;23;20056;-90
2023/03/19 08:23:00;;;;;;;5.22;2.65;;;10.70;99.90;;;;;;6219624;23;20020;-93
2023/03/19 08:25:50;;;;;;;5.60;2.90;;;10.80;99.90;;;;;;6216806;23;20032;-92
2023/03/19 08:28:37;;;;;;;4.07;2.40;;;10.90;99.90;;;;;;6215568;23;20320;-92
2023/03/19 08:31:27;;;;;;;4.90;2.30;;;11.10;99.90;;;;;;6215610;23;20462;-92
2023/03/19 08:34:15;;;;;;;4.68;2.63;;;11.20;99.90;;;;;;6217034;23;20104;-92
2023/03/19 08:37:05;;;;;;;3.33;2.08;;;11.40;99.90;;;;;;6215839;23;20025;-92
2023/03/19 08:39:53;;;;;;;4.88;2.30;;;11.50;99.90;;;;;;6216646;23;20028;-92
2023/03/19 08:42:41;;;;;;;3.22;2.00;;;11.60;99.90;;;;;;6214638;23;20025;-93
2023/03/19 08:45:31;;;;;;;4.22;1.77;;;11.60;58.40;;;;;;6215542;23;20028;-94
2023/03/19 08:48:19;;;;;;;5.55;2.40;;;11.80;19.30;;;;;;6216889;23;20032;-92
2023/03/19 08:51:06;;;;;;;4.00;2.17;;;11.80;1.00;;;;;;6216125;23;20478;-92
2023/03/19 08:53:53;;;;;;;4.70;1.90;;;11.90;1.00;;;;;;6215830;23;20036;-92
2023/03/19 08:56:40;;;;;;;3.50;2.17;;;12.00;1.00;;;;;;6215379;23;20092;-92
2023/03/19 08:59:31;;;;;;;5.13;2.30;;;12.10;1.00;;;;;;6219448;23;20072;-92
2023/03/19 09:02:20;;;;;;;4.57;1.95;;;12.30;1.00;;;;;;6216949;23;20264;-91
2023/03/19 09:05:09;;;;;;;4.40;2.25;;;12.40;1.00;;;;;;6218801;23;20036;-90
2023/03/19 09:07:57;;;;;;;3.65;1.92;;;12.50;1.00;;;;;;6219672;23;20095;-90
2023/03/19 09:10:46;;;;;;;5.38;2.17;;;12.70;1.00;;;;;;6219858;23;20052;-92
2023/03/19 09:13:39;;;;;;;3.28;2.15;;;13.00;1.00;;;;;;6228502;22;20082;-91
2023/03/19 09:16:27;;;;;;;4.13;2.03;;;13.30;1.00;;;;;;6223981;23;20035;-90
2023/03/19 09:19:14;;;;;;;3.15;2.30;;;13.30;99.90;;;;;;6222392;23;20020;-92
2023/03/19 09:22:02;;;;;;;5.82;1.90;;;13.30;99.90;;;;;;6221302;23;20119;-90
2023/03/19 09:24:49;;;;;;;6.38;2.17;;;13.00;99.90;;;;;;6221332;23;20036;-91
2023/03/19 09:27:39;;;;;;;6.82;2.03;;;13.40;99.90;;;;;;6219498;23;20039;-92
2023/03/19 09:30:27;;;;;;;6.93;1.67;;;13.50;99.90;;;;;;6217516;23;20032;-92
2023/03/19 09:33:16;;;;;;;2.85;1.90;;;13.70;99.90;;;;;;6217925;23;20332;-90
2023/03/19 09:36:04;;;;;;;5.47;1.80;;;14.40;99.90;;;;;;6218507;23;20025;-91
2023/03/19 09:38:59;;;;;;;3.90;1.80;;;15.10;99.90;;;;;;6220023;23;20028;-90
2023/03/19 09:42:33;;;;;;;4.18;1.90;;;15.80;99.90;;;;;;6098782;23;20033;-89
2023/03/19 09:45:26;;;;;;;5.53;2.20;;;15.90;99.90;;;;;;6099133;23;20033;-93
2023/03/19 09:48:34;;;;;;;4.80;1.50;;;16.00;99.90;;;;;;6099356;23;20452;-93
2023/03/19 09:51:37;;;;;;;3.65;2.00;;;16.20;99.90;;;;;;6099559;23;20038;-91
2023/03/19 09:54:35;;;;;;;3.35;1.63;;;16.20;99.90;;;;;;6102642;23;20074;-90
2023/03/19 09:57:23;;;;;;;2.78;1.75;;;15.90;99.90;;;;;;6114083;23;20030;-92
2023/03/19 10:00:19;;;;;;;3.85;1.92;;;15.30;99.90;;;;;;6206269;23;20080;-86
2023/03/19 10:03:40;;;;;;;3.50;2.00;;;15.40;99.90;;;;;;6239990;23;20020;-87
2023/03/19 10:06:35;;;;;;;7.05;2.40;;;15.40;99.90;;;;;;6231559;23;20035;-90
2023/03/19 10:09:33;;;;;;;3.50;2.15;;;15.30;99.90;;;;;;6225297;23;20029;-88
2023/03/19 10:12:42;;;;;;;5.07;2.40;;;15.80;99.90;;;;;;6221655;23;20025;-90
2023/03/19 10:15:37;;;;;;;4.13;2.00;;;16.10;99.90;;;;;;6219795;23;20186;-92
2023/03/19 10:18:30;;;;;;;6.07;2.42;;;15.60;99.90;;;;;;6214377;23;20024;-84
2023/03/19 10:21:22;;;;;;;;;;;15.10;99.90;;;;;;6215404;23;20107;-85
2023/03/19 10:24:35;;;;;;;3.70;2.38;;;15.50;99.90;;;;;;6215094;23;19916;-83
2023/03/19 10:27:30;;;;;;;5.95;2.40;;;15.90;99.90;;;;;;6215284;23;20039;-82
2023/03/19 10:30:20;;;;;;;5.72;2.35;;;16.30;98.20;;;;;;6215143;23;20024;-80
2023/03/19 10:33:15;;;;;;;3.50;2.00;;;16.30;97.80;;;;;;6216385;23;20038;-81
2023/03/19 10:36:09;;;;;;;4.00;2.55;;;16.70;96.90;;;;;;6215877;23;20036;-81
2023/03/19 10:38:56;;;;;;;4.63;2.13;;;16.90;97.40;;;;;;6213801;23;20032;-84
2023/03/19 10:42:10;;;;;;;4.65;2.08;;;17.30;90.30;;;;;;6215916;23;20025;-85
2023/03/19 10:45:32;;;;;;;4.03;1.90;;;18.00;89.20;;;;;;6220222;23;20080;-80
2023/03/19 10:48:25;;;;;;;3.17;1.60;;;17.20;57.70;;;;;;6222899;23;20051;-83
2023/03/19 10:51:20;;;;;;;5.13;2.15;;;16.50;53.10;;;;;;6218510;23;20024;-82
2023/03/19 10:54:24;;;;;;;4.72;1.92;;;16.30;46.20;;;;;;6214940;23;20033;-81
2023/03/19 10:57:44;;;;;;;3.33;1.70;;;16.70;48.00;;;;;;6217230;23;20024;-84
2023/03/19 11:00:34;;;;;;;4.00;1.73;;;17.30;47.40;;;;;;6212646;23;20039;-81
2023/03/19 11:03:35;;;;;;;3.90;1.90;;;17.40;37.90;;;;;;6195298;23;20020;-84
2023/03/19 11:06:39;;;;;;;4.47;2.25;;;17.30;37.80;;;;;;6215892;23;20186;-84
2023/03/19 11:09:33;;;;;;;2.63;1.88;;;16.80;27.80;;;;;;6214929;23;20024;-84
2023/03/19 11:12:24;;;;;;;5.32;2.25;;;16.30;27.10;;;;;;6218473;23;20380;-82
2023/03/19 11:15:22;;;;;;;5.38;2.45;;;15.90;28.70;;;;;;6218368;23;20643;-83
2023/03/19 11:18:16;;;;;;;2.28;1.88;;;15.90;29.00;;;;;;6216199;23;20102;-85
2023/03/19 11:21:27;;;;;;;4.47;1.88;;;15.90;29.30;;;;;;6215911;23;20036;-84
2023/03/19 11:24:16;;;;;;;6.47;2.08;;;16.50;25.40;;;;;;6215506;23;20056;-81
2023/03/19 11:27:05;;;;;;;3.80;1.63;;;17.10;27.90;;;;;;6216144;23;20348;-83
2023/03/19 11:29:53;;;;;;;6.57;2.17;;;17.90;24.40;;;;;;6217221;23;20064;-82
2023/03/19 11:33:06;;;;;;;6.78;2.13;;;17.10;18.10;;;;;;6216718;23;20029;-86
2023/03/19 11:36:04;;;;;;;5.18;1.80;;;17.70;20.40;;;;;;6215977;23;20029;-83
2023/03/19 11:39:26;;;;;;;3.15;1.80;;;17.40;13.30;;;;;;6218720;23;20329;-83
2023/03/19 11:42:41;;;;;;;3.95;1.83;;;16.60;12.50;;;;;;6217781;23;20036;-85
2023/03/19 11:45:47;;;;;;;3.85;2.13;;;16.10;15.30;;;;;;6217288;23;20432;-84
2023/03/19 11:48:45;;;;;;;6.72;2.38;;;16.10;17.40;;;;;;6218292;23;20035;-82
2023/03/19 11:51:44;;;;;;;5.25;2.15;;;17.10;17.70;;;;;;6216773;23;20035;-86
2023/03/19 11:54:58;;;;;;;4.47;2.22;;;18.20;15.20;;;;;;6216770;23;20040;-82
2023/03/19 11:58:06;;;;;;;4.35;2.03;;;17.00;9.30;;;;;;6215935;23;20043;-84
2023/03/19 12:01:30;;;;;;;4.70;1.70;;;16.70;9.70;;;;;;6216665;23;20493;-82
2023/03/19 12:04:24;;;;;;;5.05;2.17;;;16.50;7.40;;;;;;6217106;23;20110;-81
2023/03/19 12:07:33;;;;;;;3.92;1.80;;;16.40;9.50;;;;;;6216491;23;20040;-82
2023/03/19 12:10:39;;;;;;;4.40;2.17;;;16.70;13.10;;;;;;6218196;23;20078;-83
2023/03/19 12:13:30;;;;;;;4.40;2.08;;;16.90;9.10;;;;;;6216558;23;20083;-84
2023/03/19 12:16:55;;;;;;;3.97;2.00;;;17.80;9.50;;;;;;6215806;23;20029;-81
2023/03/19 12:19:49;;;;;;;3.80;2.13;;;17.60;5.80;;;;;;6216186;23;20039;-83
2023/03/19 12:22:58;;;;;;;5.13;1.95;;;16.30;4.80;;;;;;6217528;23;20024;-83
2023/03/19 12:25:59;;;;;;;4.32;2.10;;;15.80;9.30;;;;;;6217739;23;20092;-83
2023/03/19 12:28:53;;;;;;;9.85;2.45;;;16.20;9.60;;;;;;6218024;23;20021;-83
2023/03/19 12:31:59;;;;;;;5.72;2.17;;;16.70;9.00;;;;;;6217578;23;20075;-85
2023/03/19 12:35:16;;;;;;;7.18;2.55;;;16.70;8.20;;;;;;6215920;23;20079;-82
2023/03/19 12:38:26;;;;;;;6.00;2.40;;;16.40;5.90;;;;;;6216677;23;20024;-83
2023/03/19 12:41:26;;;;;;;6.25;2.10;;;15.70;4.40;;;;;;6216481;23;20074;-85
2023/03/19 12:44:22;;;;;;;5.43;2.13;;;15.80;9.10;;;;;;6219965;23;20032;-85
2023/03/19 12:47:17;;;;;;;5.25;2.03;;;15.60;7.00;;;;;;6225019;23;20048;-84
2023/03/19 12:50:16;;;;;;;5.07;1.70;;;15.50;6.70;;;;;;6225259;23;20028;-82
2023/03/19 12:53:13;;;;;;;3.75;1.85;;;15.60;8.60;;;;;;6226731;23;20320;-84
2023/03/19 12:56:23;;;;;;;2.53;1.70;;;15.70;7.10;;;;;;6228401;23;20028;-83
2023/03/19 12:59:23;;;;;;;2.28;1.60;;;15.70;9.00;;;;;;6232403;23;20031;-82
2023/03/19 13:02:32;;;;;;;3.40;1.83;;;15.90;7.10;;;;;;6225636;23;20080;-87
2023/03/19 13:05:40;;;;;;;4.47;1.60;;;15.90;6.00;;;;;;6224311;23;20100;-84
2023/03/19 13:08:36;;;;;;;2.90;1.40;;;16.40;3.80;;;;;;6227494;23;20040;-86
2023/03/19 13:11:47;;;;;;;3.30;1.48;;;16.80;1.20;;;;;;6223584;23;20088;-87
2023/03/19 13:14:57;;;;;;;3.88;1.60;;;17.20;1.00;;;;;;6217652;23;20039;-84
2023/03/19 13:17:54;;;;;;;3.85;1.52;;;17.20;1.00;;;;;;6217012;23;20020;-85
2023/03/19 13:20:51;;;;;;;3.35;1.40;;;17.60;1.00;;;;;;6216828;23;20075;-83
2023/03/19 13:23:40;;;;;;;2.10;1.13;;;17.50;1.00;;;;;;6217480;23;20028;-86
2023/03/19 13:26:28;;;;;;;2.75;1.23;;;17.30;1.00;;;;;;6223613;23;20021;-85
2023/03/19 13:29:30;;;;;;;4.18;1.27;;;17.00;1.00;;;;;;6231407;23;20313;-87
2023/03/19 13:33:07;;;;;;;4.15;1.80;;;16.60;1.00;;;;;;6229145;23;20028;-85
2023/03/19 13:35:58;;;;;;;4.57;1.70;;;16.40;1.00;;;;;;6142800;23;20074;-83
2023/03/19 13:38:50;;;;;;;2.35;1.42;;;16.30;1.00;;;;;;6137142;23;20054;-83
2023/03/19 13:41:38;;;;;;;2.03;1.13;;;16.70;1.00;;;;;;6210729;23;20059;-79
2023/03/19 13:44:31;;;;;;;7.47;3.00;;;17.30;1.00;;;;;;6232349;23;20029;-86
2023/03/19 13:47:38;;;;;;;4.35;2.38;;;17.40;1.00;;;;;;6227538;23;20028;-84
2023/03/19 13:50:27;;;;;;;3.72;2.15;;;17.30;1.00;;;;;;6216426;23;20040;-85
2023/03/19 13:53:34;;;;;;;6.25;4.35;;;16.80;1.00;;;;;;6216238;23;20091;-83
2023/03/19 13:56:22;;;;;;;3.20;1.90;;;16.00;1.00;;;;;;6215205;23;20103;-85
2023/03/19 13:59:42;;;;;;;6.53;2.70;;;15.70;1.00;;;;;;6219456;23;20056;-84
2023/03/19 14:02:30;;;;;;;3.03;1.50;;;15.50;1.00;;;;;;6216246;23;20021;-83
2023/03/19 14:05:20;;;;;;;3.08;1.60;;;15.40;1.00;;;;;;6215617;23;20017;-84
2023/03/19 14:08:18;;;;;;;2.20;1.30;;;15.20;1.00;;;;;;6217444;23;20095;-83
2023/03/19 14:11:06;;;;;;;3.53;1.60;;;15.00;1.00;;;;;;6217609;23;20047;-82
2023/03/19 14:13:59;;;;;;;2.75;1.27;;;15.10;1.00;;;;;;6218808;23;20128;-82
2023/03/19 14:16:51;;;;;;;3.03;1.40;;;15.30;2.80;;;;;;6221184;23;20091;-84
2023/03/19 14:19:42;;;;;;;1.92;1.30;;;15.60;1.90;;;;;;6219359;23;20025;-84
2023/03/19 14:22:37;;;;;;;4.22;1.15;;;15.90;2.00;;;;;;6218630;23;20034;-83
2023/03/19 14:25:27;;;;;;;2.10;1.08;;;15.80;1.00;;;;;;6214306;23;20415;-84
2023/03/19 14:28:20;;;;;;;2.78;1.40;;;15.70;9.10;;;;;;6218629;23;20033;-83
2023/03/19 14:31:37;;;;;;;3.25;1.35;;;15.60;1.00;;;;;;6216818;23;20104;-85
2023/03/19 14:34:42;;;;;;;1.83;1.10;;;15.70;1.00;;;;;;6212387;23;20404;-83
2023/03/19 14:37:36;;;;;;;3.50;1.00;;;15.60;1.00;;;;;;6216859;23;20103;-84
2023/03/19 14:40:49;;;;;;;0.55;0.55;;;15.60;1.00;;;;;;6218214;23;20112;-82
2023/03/19 14:44:10;;;;;;;2.25;1.00;;;15.60;1.00;;;;;;6218977;23;20495;-84
2023/03/19 14:47:24;;;;;;;1.17;0.85;;;15.40;1.00;;;;;;6221568;23;20099;-84
2023/03/19 14:50:11;;;;;;;2.05;1.45;;;15.30;1.00;;;;;;6220295;23;20429;-84
2023/03/19 14:53:09;;;;;;;1.33;0.90;;;15.10;1.00;;;;;;6220790;23;20028;-85
2023/03/19 14:56:09;;;;;;;2.03;1.13;;;15.20;1.50;;;;;;6217407;23;20028;-87
2023/03/19 14:59:02;;;;;;;3.17;1.30;;;15.30;1.00;;;;;;6218003;23;20312;-83
2023/03/19 15:01:52;;;;;;;13.73;6.88;;;15.30;1.00;;;;;;6217316;23;20028;-84
2023/03/19 15:04:44;;;;;;;14.38;5.45;;;15.20;3.10;;;;;;6218874;23;20052;-84
2023/03/19 15:07:40;;;;;;;2.42;1.50;;;14.90;5.10;;;;;;6218008;23;20031;-81